• Join FlightAware (Why Join?)
  • Login
  • US Flag 
09:03PM EST


 

Airport Tracker/Info


-or-


 

Live Flight TrackerFlight Track Log ✈ DAL268 ✈ 10-Oct-2013 ✈ KSFO - KJFK

Flight Track Log - Related Links

Times and Time Zones

All times are in EDT time to prevent confusion due to time zone crossing. See the DAL268 flight status page for this flight to view local times or setup timezone preferences in your user account.

Time Position Orientation Groundspeed Altitude Reporting Facility
EDT Latitude Longitude Course Direction KTS MPH feet Rate Location/Type
02:36PM 37.6090 -122.3790 360° North 80 92  Level FlightAware
02:36PM 37.6210 -122.3710 28° Northeast 134 154 1,385 Level FlightAware
02:36PM 37.6356 -122.3620 26° Northeast 170 196 900 2,368 Climbing FlightAware ADS-B
02:37PM 37.6493 -122.3530 27° Northeast 186 214 1,500 1,588 Climbing FlightAware ADS-B
02:37PM 37.6619 -122.3450 27° Northeast 209 241 1,800 1,565 Climbing FlightAware ADS-B
02:37PM 37.6694 -122.3400 28° Northeast 221 254 2,100 2,000 Climbing FlightAware ADS-B
02:37PM 37.6722 -122.3380 29° Northeast 224 258 2,200 1,714 Climbing FlightAware ADS-B
02:37PM 37.6753 -122.3350 37° Northeast 227 261 2,300 2,000 Climbing FlightAware ADS-B
02:37PM 37.6800 -122.3300 40° Northeast 233 268 2,500 2,000 Climbing FlightAware ADS-B
02:37PM 37.6848 -122.3250 40° Northeast 238 274 2,700 2,000 Climbing FlightAware ADS-B
02:38PM 37.6897 -122.3190 44° Northeast 247 284 2,900 1,909 Climbing FlightAware ADS-B
02:38PM 37.7024 -122.3020 47° Northeast 260 299 3,400 2,545 Climbing FlightAware ADS-B
02:38PM 37.7173 -122.2820 47° Northeast 266 306 4,300 3,375 Climbing FlightAware ADS-B
02:38PM 37.7298 -122.2640 49° Northeast 266 306 5,200 3,097 Climbing FlightAware ADS-B
02:39PM 37.7424 -122.2460 48° Northeast 266 306 5,900 2,757 Climbing FlightAware ADS-B
02:39PM 37.7603 -122.2190 50° Northeast 280 322 6,900 3,000 Climbing FlightAware ADS-B
02:39PM 37.7770 -122.1930 51° Northeast 282 325 8,000 3,000 Climbing FlightAware ADS-B
02:40PM 37.7868 -122.1780 50° Northeast 288 331 8,500 3,000 Climbing FlightAware ADS-B
02:40PM 37.7957 -122.1610 56° Northeast 288 331 9,200 3,158 Climbing FlightAware ADS-B
02:40PM 37.7987 -122.1510 69° East 288 331 9,500 3,273 Climbing FlightAware ADS-B
02:40PM 37.8009 -122.1430 71° East 290 334 9,800 2,057 Climbing FlightAware ADS-B
02:40PM 37.8137 -122.0930 72° East 316 364 10,700 1,600 Climbing FlightAware ADS-B
02:41PM 37.8288 -122.0370 71° East 345 397 11,400 1,500 Climbing FlightAware ADS-B
02:41PM 37.8436 -121.9770 73° East 368 423 12,200 1,967 Climbing FlightAware ADS-B
02:42PM 37.8588 -121.9130 73° East 378 435 13,400 2,381 Climbing FlightAware ADS-B
02:42PM 37.8751 -121.8450 73° East 384 442 14,700 2,286 Climbing FlightAware ADS-B
02:43PM 37.8909 -121.7780 73° East 392 451 15,800 2,149 Climbing FlightAware ADS-B
02:44PM 37.9104 -121.6970 73° East 401 461 17,100 2,149 Climbing FlightAware ADS-B
02:44PM 37.9269 -121.6280 73° East 406 467 18,200 2,066 Climbing FlightAware ADS-B
02:45PM 37.9436 -121.5590 73° East 412 474 19,200 2,000 Climbing FlightAware ADS-B
02:45PM 37.9603 -121.4890 73° East 416 479 20,200 1,869 Climbing FlightAware ADS-B
02:46PM 37.9773 -121.4180 73° East 422 486 21,100 1,692 Climbing FlightAware ADS-B
02:46PM 38.0038 -121.3050 73° East 429 494 22,400 1,595 Climbing FlightAware ADS-B
02:47PM 38.0210 -121.2320 73° East 438 504 23,200 1,478 Climbing FlightAware
02:48PM 38.0440 -121.1360 73° East 447 514 24,100 1,371 Climbing FlightAware
02:48PM 38.0620 -121.0570 74° East 454 522 24,800 1,412 Climbing FlightAware
02:49PM 38.0840 -120.9630 73° East 459 528 25,700 1,352 Climbing FlightAware
02:49PM 38.1060 -120.8750 72° East 464 534 26,400 1,233 Climbing FlightAware
02:50PM 38.1270 -120.7750 75° East 474 545 27,200 1,364 Climbing FlightAware
02:50PM 38.1400 -120.6930 79° East 477 549 27,900 1,322 Climbing FlightAware
02:51PM 38.1550 -120.6100 77° East 479 551 28,500 1,548 Climbing FlightAware
02:51PM 38.1686 -120.5301 78° East 474 545 29,500 1,667 Climbing FlightAware ADS-B
02:52PM 38.1890 -120.4150 77° East 469 540 30,500 1,440 Climbing FlightAware
02:53PM 38.2070 -120.3190 77° East 469 540 31,300 1,254 Climbing FlightAware
02:53PM 38.2220 -120.2350 77° East 471 542 31,900 1,158 Climbing FlightAware
02:54PM 38.2200 -120.2451 256° West 473 544 32,400 985 Climbing FlightAware ADS-B
02:54PM 38.2550 -120.0500 77° East 478 550 33,000 462 Climbing FlightAware
02:55PM 38.2720 -119.9520 78° East 479 551 33,000  Level FlightAware
02:55PM 38.2880 -119.8630 77° East 477 549 33,000  Level FlightAware
02:56PM 38.3030 -119.7710 78° East 477 549 33,000  Level FlightAware
02:56PM 38.3094 -119.7361 77° East 478 550 33,000 750 Level FlightAware ADS-B
02:57PM 38.3262 -119.6391 78° East 480 552 33,600 1,012 Climbing FlightAware ADS-B
02:58PM 38.3483 -119.5100 78° East 481 554 34,400 909 Climbing FlightAware ADS-B
02:58PM 38.3729 -119.3659 78° East 487 560 35,100 878 Climbing FlightAware ADS-B
02:59PM 38.3871 -119.2812 78° East 488 562 35,600 787 Climbing FlightAware ADS-B
02:59PM 38.4017 -119.1948 78° East 490 564 35,900 1,164 Climbing FlightAware ADS-B
03:00PM 38.4186 -119.0925 78° East 473 544 36,900 868 Climbing FlightAware ADS-B
03:01PM 38.4350 -118.9918 78° East 460 529 37,000 82 Climbing FlightAware ADS-B
03:01PM 38.4508 -118.8953 78° East 468 539 37,000  Level FlightAware ADS-B
03:02PM 38.4780 -118.7270 78° East 472 543 37,000  Level FlightAware
03:03PM 38.4930 -118.6310 79° East 475 547 37,000  Level FlightAware
03:03PM 38.5080 -118.5430 78° East 479 551 37,000  Level FlightAware
03:04PM 38.5240 -118.4380 79° East 483 556 37,000  Level FlightAware
03:05PM 38.5400 -118.3370 79° East 485 558 37,000  Level FlightAware
03:05PM 38.5540 -118.2480 79° East 487 560 37,000  Level FlightAware
03:06PM 38.5690 -118.1530 79° East 488 562 37,000  Level FlightAware
03:06PM 38.5860 -118.0400 79° East 488 562 37,000  Level FlightAware
03:07PM 38.6030 -117.9380 78° East 487 560 37,000  Level FlightAware
03:08PM 38.6170 -117.8540 78° East 487 560 37,000  Level FlightAware
03:08PM 38.6310 -117.7700 78° East 487 560 37,000  Level FlightAware
03:09PM 38.6440 -117.6880 79° East 487 560 37,000  Level FlightAware
03:10PM 38.6590 -117.5970 78° East 487 560 37,000  Level FlightAware
03:10PM 38.6740 -117.5110 77° East 487 560 37,000  Level FlightAware
03:11PM 38.6880 -117.4240 78° East 487 560 37,000  Level FlightAware
03:12PM 38.7070 -117.3090 78° East 487 560 37,000  Level FlightAware
03:12PM 38.7210 -117.2230 78° East 487 560 37,000  Level FlightAware
03:13PM 38.7360 -117.1340 78° East 487 560 37,000  Level FlightAware
03:13PM 38.7500 -117.0470 78° East 487 560 37,000  Level FlightAware
03:14PM 38.7640 -116.9660 77° East 487 560 37,000  Level FlightAware
03:15PM 38.7790 -116.8740 78° East 487 560 37,000  Level FlightAware
03:15PM 38.7930 -116.7930 77° East 487 560 37,000  Level FlightAware
03:16PM 38.8070 -116.7060 78° East 487 560 37,000  Level FlightAware
03:16PM 38.8210 -116.6190 78° East 487 560 37,000  Level FlightAware
03:17PM 38.8397 -116.3069 78° East 470 541 37,000  Level Salt Lake Center
03:18PM 38.8622 -116.1417 80° East 469 540 37,000  Level Salt Lake Center
03:19PM 38.8858 -115.9750 80° East 472 543 37,000  Level Salt Lake Center
03:20PM 38.9069 -115.8083 81° East 474 545 37,000  Level Salt Lake Center
03:21PM 38.9342 -115.6081 80° East 474 545 37,000  Level Salt Lake Center
03:22PM 38.9561 -115.4433 80° East 470 541 37,000  Level Salt Lake Center
03:23PM 38.9775 -115.2847 80° East 473 544 37,000  Level Salt Lake Center
03:24PM 38.9983 -115.1217 81° East 468 539 37,000  Level Salt Lake Center
03:25PM 39.0203 -114.9561 80° East 469 540 37,000  Level Salt Lake Center
03:32PM 39.1510 -113.8760 80° East 468 539 37,000  Level FlightAware
03:32PM 39.1655 -113.7488 82° East 470 541 37,000  Level FlightAware ADS-B
03:33PM 39.1823 -113.6025 82° East 471 542 37,000  Level FlightAware ADS-B
03:34PM 39.1918 -113.5190 82° East 472 543 37,000  Level FlightAware ADS-B
03:34PM 39.2027 -113.4224 82° East 473 544 37,000  Level FlightAware ADS-B
03:35PM 39.2215 -113.2541 82° East 474 545 37,000  Level FlightAware ADS-B
03:36PM 39.2318 -113.1611 82° East 474 545 37,000  Level FlightAware ADS-B
03:37PM 39.2447 -113.0441 82° East 473 544 37,000  Level FlightAware ADS-B
03:37PM 39.2453 -113.0390 81° East 473 544 37,000  Level FlightAware ADS-B
03:37PM 39.2545 -112.9540 82° East 472 543 37,000  Level FlightAware ADS-B
03:38PM 39.2596 -112.9064 82° East 473 544 37,000  Level FlightAware ADS-B
03:38PM 39.2637 -112.8690 82° East 472 543 37,000  Level FlightAware ADS-B
03:38PM 39.2734 -112.7780 82° East 472 543 37,000  Level FlightAware ADS-B
03:39PM 39.2780 -112.7355 82° East 472 543 37,000  Level FlightAware ADS-B
03:39PM 39.2856 -112.6640 82° East 472 543 37,000  Level FlightAware ADS-B
03:39PM 39.2902 -112.6205 82° East 471 542 37,000  Level FlightAware ADS-B
03:39PM 39.2945 -112.5790 82° East 471 542 37,000  Level FlightAware ADS-B
03:40PM 39.3004 -112.5312 81° East 471 542 37,000  Level FlightAware ADS-B
03:40PM 39.3033 -112.5130 78° East 470 541 37,000  Level FlightAware ADS-B
03:40PM 39.3176 -112.4300 77° East 470 541 37,000  Level FlightAware ADS-B
03:41PM 39.3257 -112.3826 78° East 469 540 37,000  Level FlightAware ADS-B
03:41PM 39.3320 -112.3470 77° East 470 541 37,000  Level FlightAware ADS-B
03:41PM 39.3480 -112.2580 77° East 469 540 37,000  Level FlightAware ADS-B
03:42PM 39.3586 -112.2015 76° East 469 540 37,000  Level FlightAware ADS-B
03:42PM 39.3634 -112.1750 77° East 469 540 37,000  Level FlightAware ADS-B
03:42PM 39.3738 -112.1201 76° East 469 540 37,000  Level FlightAware ADS-B
03:42PM 39.3800 -112.0870 76° East 469 540 37,000  Level FlightAware ADS-B
03:43PM 39.3950 -112.0063 76° East 470 541 37,000  Level FlightAware ADS-B
03:43PM 39.3982 -111.9890 77° East 470 541 37,000  Level FlightAware ADS-B
03:43PM 39.4094 -111.9287 76° East 470 541 37,000  Level FlightAware ADS-B
03:44PM 39.4135 -111.9060 77° East 470 541 37,000  Level FlightAware ADS-B
03:44PM 39.4269 -111.8336 77° East 470 541 37,000  Level FlightAware ADS-B
03:44PM 39.4297 -111.8180 77° East 471 542 37,000  Level FlightAware ADS-B
03:45PM 39.4436 -111.7416 77° East 471 542 37,000  Level FlightAware ADS-B
03:45PM 39.4456 -111.7300 77° East 471 542 37,000  Level FlightAware ADS-B
03:45PM 39.4631 -111.6344 77° East 471 542 37,000  Level FlightAware ADS-B
03:46PM 39.4791 -111.5450 77° East 471 542 37,000  Level FlightAware ADS-B
03:46PM 39.4892 -111.4889 77° East 471 542 37,000  Level FlightAware ADS-B
03:46PM 39.4940 -111.4620 77° East 472 543 37,000  Level FlightAware ADS-B
03:47PM 39.5041 -111.4055 77° East 472 543 37,000  Level FlightAware ADS-B
03:47PM 39.5088 -111.3790 77° East 473 544 37,000  Level FlightAware ADS-B
03:47PM 39.5181 -111.3268 77° East 473 544 37,000  Level FlightAware ADS-B
03:47PM 39.5239 -111.2940 77° East 474 545 37,000  Level FlightAware ADS-B
03:48PM 39.5336 -111.2394 77° East 474 545 37,000  Level FlightAware ADS-B
03:48PM 39.5386 -111.2110 77° East 474 545 37,000  Level FlightAware ADS-B
03:48PM 39.5484 -111.1551 77° East 473 544 37,000  Level FlightAware ADS-B
03:48PM 39.5531 -111.1280 77° East 473 544 37,000  Level FlightAware ADS-B
03:49PM 39.5630 -111.0712 77° East 474 545 37,000  Level FlightAware ADS-B
03:49PM 39.5775 -110.9882 77° East 474 545 37,000  Level FlightAware ADS-B
03:49PM 39.5850 -110.9450 77° East 474 545 37,000  Level FlightAware ADS-B
03:50PM 39.5922 -110.9042 77° East 475 547 37,000  Level FlightAware ADS-B
03:50PM 39.6044 -110.8336 77° East 475 547 37,000  Level FlightAware ADS-B
03:50PM 39.6128 -110.7852 77° East 474 545 37,000  Level FlightAware ADS-B
03:51PM 39.6295 -110.6879 77° East 475 547 37,000  Level FlightAware ADS-B
03:52PM 39.6506 -110.5650 77° East 475 547 37,000  Level FlightAware ADS-B
03:52PM 39.6649 -110.4803 78° East 475 547 37,000  Level FlightAware ADS-B
03:53PM 39.6788 -110.3982 78° East 474 545 37,000  Level FlightAware ADS-B
03:53PM 39.6925 -110.3168 78° East 473 544 37,000  Level FlightAware ADS-B
03:54PM 39.7076 -110.2271 78° East 473 544 37,000  Level FlightAware ADS-B
03:54PM 39.7211 -110.1461 78° East 472 543 37,000  Level FlightAware ADS-B
03:55PM 39.7348 -110.0630 78° East 470 541 37,000  Level FlightAware ADS-B
03:55PM 39.7537 -109.9484 78° East 469 540 37,000  Level FlightAware ADS-B
03:56PM 39.7690 -109.8552 78° East 469 540 37,000  Level FlightAware ADS-B
03:57PM 39.7874 -109.7429 78° East 469 540 37,000  Level FlightAware ADS-B
03:57PM 39.8011 -109.6579 78° East 469 540 37,000  Level FlightAware ADS-B
03:58PM 39.8192 -109.5457 78° East 471 542 37,000  Level FlightAware ADS-B
03:58PM 39.8320 -109.4660 78° East 472 543 37,000  Level FlightAware ADS-B
03:59PM 39.8463 -109.3768 78° East 472 543 37,000  Level FlightAware ADS-B
04:00PM 39.8638 -109.2663 78° East 474 545 37,000  Level FlightAware ADS-B
04:00PM 39.8774 -109.1796 78° East 475 547 37,000  Level FlightAware ADS-B
04:01PM 39.8968 -109.0557 78° East 475 547 37,000  Level FlightAware ADS-B
04:01PM 39.9140 -108.9447 79° East 476 548 37,000  Level FlightAware ADS-B
04:02PM 39.9284 -108.8520 79° East 477 549 37,000  Level FlightAware ADS-B
04:03PM 39.9407 -108.7727 79° East 478 550 37,000  Level FlightAware ADS-B
04:03PM 39.9556 -108.6751 79° East 479 551 37,000  Level FlightAware ADS-B
04:04PM 39.9706 -108.5762 79° East 480 552 37,000  Level FlightAware ADS-B
04:04PM 39.9836 -108.4908 79° East 480 552 37,000  Level FlightAware ADS-B
04:05PM 40.0007 -108.3771 79° East 481 554 37,000  Level FlightAware ADS-B
04:05PM 40.0134 -108.2916 79° East 482 555 37,000  Level FlightAware ADS-B
04:06PM 40.0268 -108.2017 79° East 482 555 37,000  Level FlightAware ADS-B
04:06PM 40.0396 -108.1148 79° East 483 556 37,000  Level FlightAware ADS-B
04:07PM 40.0526 -108.0264 79° East 485 558 37,000  Level FlightAware ADS-B
04:07PM 40.0666 -107.9382 78° East 488 562 37,000  Level FlightAware ADS-B
04:08PM 40.0836 -107.8554 75° East 493 567 37,000  Level FlightAware ADS-B
04:08PM 40.1021 -107.7743 73° East 494 568 37,000  Level FlightAware ADS-B
04:09PM 40.1264 -107.6699 73° East 495 570 37,000  Level FlightAware ADS-B
04:09PM 40.1458 -107.5859 73° East 496 571 37,000  Level FlightAware ADS-B
04:10PM 40.1669 -107.4945 73° East 497 572 37,000  Level FlightAware ADS-B
04:10PM 40.1862 -107.4101 73° East 497 572 37,000  Level FlightAware ADS-B
04:11PM 40.2052 -107.3268 73° East 496 571 37,000  Level FlightAware ADS-B
04:11PM 40.2246 -107.2410 73° East 496 571 37,000  Level FlightAware ADS-B
04:12PM 40.2560 -107.1000 74° East 497 572 37,000  Level FlightAware
04:13PM 40.2780 -107.0050 73° East 496 571 37,000  Level FlightAware
04:13PM 40.3000 -106.9030 74° East 496 571 37,000  Level FlightAware
04:14PM 40.3240 -106.7970 73° East 496 571 37,000  Level FlightAware
04:15PM 40.3470 -106.6930 74° East 497 572 37,000  Level FlightAware
04:15PM 40.3660 -106.6050 74° East 497 572 37,000  Level FlightAware
04:16PM 40.3900 -106.4950 74° East 497 572 37,000  Level FlightAware
04:16PM 40.4110 -106.4010 74° East 496 571 37,000  Level FlightAware
04:17PM 40.4310 -106.3070 74° East 496 571 37,000  Level FlightAware
04:17PM 40.4560 -106.1930 74° East 494 568 37,000  Level FlightAware
04:18PM 40.4790 -106.0880 74° East 494 568 37,000  Level FlightAware
04:19PM 40.5010 -105.9820 75° East 491 565 37,000  Level FlightAware
04:19PM 40.5250 -105.8710 74° East 490 564 37,000  Level FlightAware
04:20PM 40.5450 -105.7760 74° East 492 566 37,000  Level FlightAware
04:21PM 40.5680 -105.6670 74° East 494 568 37,000  Level FlightAware
04:21PM 40.5880 -105.5710 75° East 494 568 37,000  Level FlightAware
04:22PM 40.6150 -105.4430 74° East 491 565 37,000  Level FlightAware
04:22PM 40.6340 -105.3510 75° East 497 572 37,000  Level FlightAware
04:23PM 40.6570 -105.2390 75° East 503 579 37,000  Level FlightAware
04:24PM 40.6770 -105.1400 75° East 506 582 37,000  Level FlightAware
04:24PM 40.6970 -105.0450 74° East 508 585 37,000  Level FlightAware
04:25PM 40.7180 -104.9430 75° East 510 587 37,000  Level FlightAware
04:25PM 40.7410 -104.8280 75° East 509 586 37,000  Level FlightAware
04:26PM 40.7620 -104.7220 75° East 505 581 37,000  Level FlightAware
04:26PM 40.7820 -104.6260 75° East 503 579 37,000  Level FlightAware
04:27PM 40.8040 -104.5140 75° East 502 578 37,000  Level FlightAware
04:28PM 40.8240 -104.4100 76° East 503 579 37,000  Level FlightAware
04:28PM 40.8430 -104.3170 75° East 505 581 37,000  Level FlightAware
04:29PM 40.8650 -104.2040 76° East 507 583 37,000  Level FlightAware
04:30PM 40.8910 -104.0730 75° East 511 588 37,000  Level FlightAware
04:30PM 40.9110 -103.9660 76° East 512 589 37,000  Level FlightAware
04:31PM 40.9310 -103.8660 75° East 511 588 37,000  Level FlightAware
04:31PM 40.9500 -103.7670 76° East 512 589 37,000  Level FlightAware
04:32PM 40.9710 -103.6540 76° East 514 592 37,000  Level FlightAware
04:32PM 40.9910 -103.5490 76° East 514 592 37,000  Level FlightAware
04:33PM 41.0120 -103.4380 76° East 515 593 37,000  Level FlightAware
04:34PM 41.0320 -103.3300 76° East 513 590 37,000  Level FlightAware
04:34PM 41.0500 -103.2330 76° East 513 590 37,000  Level FlightAware
04:35PM 41.0700 -103.1280 76° East 512 589 37,000  Level FlightAware
04:35PM 41.0940 -103.0080 75° East 517 595 37,000  Level FlightAware
04:36PM 41.1230 -102.9060 69° East 524 603 37,000  Level FlightAware
04:36PM 41.1560 -102.8080 66° East 525 604 37,000  Level FlightAware
04:37PM 41.1930 -102.7010 65° Northeast 523 602 37,000  Level FlightAware
04:38PM 41.2250 -102.6090 65° Northeast 521 600 37,000  Level FlightAware
04:38PM 41.2600 -102.5070 65° Northeast 520 598 37,000  Level FlightAware
04:39PM 41.2970 -102.3990 65° Northeast 519 597 37,000  Level FlightAware
04:39PM 41.3300 -102.2990 66° East 519 597 37,000  Level FlightAware
04:40PM 41.3760 -102.1640 66° East 519 597 37,000  Level FlightAware
04:41PM 41.4070 -102.0760 65° Northeast 519 597 37,000  Level FlightAware
04:41PM 41.4390 -101.9840 65° Northeast 519 597 37,000  Level FlightAware
04:42PM 41.4700 -101.8950 65° Northeast 519 597 37,000  Level FlightAware
04:43PM 41.5010 -101.8060 65° Northeast 519 597 37,000  Level FlightAware
04:43PM 41.5320 -101.7180 65° Northeast 519 597 37,000  Level FlightAware
04:44PM 41.5640 -101.6290 64° Northeast 519 597 37,000  Level FlightAware
04:44PM 41.5950 -101.5400 65° Northeast 519 597 37,000  Level FlightAware
04:45PM 41.6260 -101.4500 65° Northeast 519 597 37,000  Level FlightAware
04:46PM 41.6570 -101.3610 65° Northeast 519 597 37,000  Level FlightAware
04:46PM 41.6880 -101.2720 65° Northeast 519 597 37,000  Level FlightAware
04:47PM 41.7190 -101.1830 65° Northeast 519 597 37,000  Level FlightAware
04:48PM 41.7510 -101.0890 65° Northeast 519 597 37,000  Level FlightAware
04:48PM 41.7830 -100.9970 65° Northeast 519 597 37,000  Level FlightAware
04:49PM 41.8140 -100.9080 65° Northeast 519 597 37,000  Level FlightAware
04:49PM 41.8450 -100.8180 65° Northeast 519 597 37,000  Level FlightAware
04:50PM 41.9425 -100.4189 65° Northeast 515 593 37,000  Level Denver Center
04:51PM 42.0039 -100.2186 68° East 517 595 37,000  Level Denver Center
04:52PM 42.0569 -100.0525 67° East 510 587 37,000  Level Denver Center
04:53PM 42.1183 -99.8550 67° East 512 589 37,000  Level Denver Center
04:54PM 42.1714 -99.6831 67° East 508 585 37,000  Level Denver Center
04:55PM 42.2261 -99.5050 67° East 511 588 37,000  Level Denver Center
04:56PM 42.2792 -99.3272 68° East 509 586 37,000  Level Denver Center
04:57PM 42.3322 -99.1489 68° East 510 587 37,000  Level Denver Center
04:59PM 42.3967 -98.9356 68° East 509 586 37,000  Level Denver Center
05:00PM 42.4489 -98.7583 68° East 507 583 37,000  Level Denver Center
05:01PM 42.5539 -98.5342 57° Northeast 510 587 37,000  Level Minneapolis Center
05:02PM 42.6472 -98.3892 49° Northeast 510 587 37,000  Level Minneapolis Center
05:08PM 42.5640 -97.4270 49° Northeast 502 578 37,000  Level FlightAware
05:09PM 42.5570 -97.3010 94° East 508 585 37,000  Level FlightAware
05:09PM 42.5650 -97.1830 85° East 517 595 37,000  Level FlightAware
05:10PM 42.5690 -97.0700 87° East 518 596 37,000  Level FlightAware
05:10PM 42.5720 -96.9460 88° East 518 596 37,000  Level FlightAware
05:11PM 42.5752 -96.8447 88° East 517 595 37,000  Level FlightAware ADS-B
05:12PM 42.5810 -96.6160 88° East 517 595 37,000 55 Level FlightAware
05:13PM 42.5840 -96.4930 88° East 519 597 37,100 600 Climbing FlightAware
05:13PM 42.5860 -96.3880 88° East 517 595 37,700 1,015 Climbing FlightAware
05:14PM 42.5880 -96.2830 88° East 515 593 38,200 833 Climbing FlightAware
05:15PM 42.5910 -96.1600 88° East 514 592 38,700 696 Climbing FlightAware
05:15PM 42.5920 -96.0590 89° East 516 594 39,000 234 Climbing FlightAware
05:16PM 42.5950 -95.9060 88° East 517 595 39,000  Level FlightAware
05:16PM 42.5970 -95.7920 89° East 516 594 39,000  Level FlightAware
05:17PM 42.5990 -95.6890 88° East 519 597 39,000  Level FlightAware
05:18PM 42.6000 -95.5680 89° East 521 600 39,000  Level FlightAware
05:18PM 42.6020 -95.4600 89° East 523 602 39,000  Level FlightAware
05:19PM 42.6030 -95.3320 89° East 525 604 39,000  Level FlightAware
05:19PM 42.6050 -95.2320 88° East 526 605 39,000  Level FlightAware
05:20PM 42.6060 -95.1120 89° East 528 608 39,000  Level FlightAware
05:20PM 42.6070 -94.9920 89° East 528 608 39,000  Level FlightAware
05:21PM 42.6080 -94.8690 89° East 530 610 39,000  Level FlightAware
05:22PM 42.6090 -94.7610 89° East 531 611 39,000  Level FlightAware
05:22PM 42.6100 -94.6550 89° East 531 611 39,000  Level FlightAware
05:23PM 42.6099 -94.5834 90° East 532 612 39,000  Level FlightAware ADS-B
05:23PM 42.6110 -94.4160 89° East 533 613 39,000  Level FlightAware
05:24PM 42.6108 -94.3875 91° East 533 613 39,000  Level FlightAware ADS-B (LPVM)
05:25PM 42.6143 -94.2322 88° East 529 609 39,000  Level FlightAware ADS-B
05:25PM 42.6140 -94.0710 90° East 521 600 39,000  Level FlightAware
05:25PM 42.6134 -94.0289 91° East 521 600 39,000  Level FlightAware ADS-B (LPVM)
05:26PM 42.6136 -93.8931 90° East 517 595 39,000  Level FlightAware ADS-B (LPVM)
05:27PM 42.6146 -93.7131 89° East 519 597 39,000  Level FlightAware ADS-B (LPVM)
05:28PM 42.6150 -93.5720 90° East 519 597 39,000  Level FlightAware
05:28PM 42.6160 -93.4540 89° East 519 597 39,000  Level FlightAware
05:29PM 42.6160 -93.3460 90° East 518 596 39,000  Level FlightAware
05:29PM 42.6170 -93.2260 89° East 519 597 39,000  Level FlightAware
05:30PM 42.6167 -93.1217 90° East 519 597 39,000  Level FlightAware ADS-B (LPVM)
05:31PM 42.6167 -93.0003 90° East 519 597 39,000  Level FlightAware ADS-B (LPVM)
05:31PM 42.6163 -92.8543 90° East 517 595 39,000  Level FlightAware ADS-B (LPVM)
05:32PM 42.6160 -92.7519 90° East 516 594 39,000  Level FlightAware ADS-B (LPVM)
05:33PM 42.6150 -92.6350 91° East 514 592 39,000  Level FlightAware
05:33PM 42.6154 -92.6242 87° East 514 592 39,000  Level FlightAware ADS-B (LPVM)
05:33PM 42.6147 -92.4938 90° East 513 590 39,000  Level FlightAware ADS-B (LPVM)
05:34PM 42.6139 -92.3670 90° East 511 588 39,000  Level FlightAware ADS-B (LPVM)
05:35PM 42.6129 -92.2325 91° East 510 587 39,000  Level FlightAware ADS-B (LPVM)
05:35PM 42.6118 -92.1133 91° East 509 586 39,000  Level FlightAware ADS-B (LPVM)
05:36PM 42.6103 -91.9614 91° East 507 583 39,000  Level FlightAware ADS-B (LPVM)
05:37PM 42.6091 -91.8566 91° East 505 581 39,000  Level FlightAware ADS-B (LPVM)
05:37PM 42.6076 -91.7269 91° East 503 579 39,000  Level FlightAware ADS-B (LPVM)
05:38PM 42.6060 -91.6280 91° East 501 577 39,000  Level FlightAware
05:38PM 42.6061 -91.6088 90° East 501 577 39,000  Level FlightAware ADS-B (LPVM)
05:38PM 42.6046 -91.5051 91° East 498 573 39,000  Level FlightAware ADS-B (LPVM)
05:39PM 42.6030 -91.4140 91° East 496 571 39,000  Level FlightAware
05:39PM 42.6027 -91.3821 91° East 495 570 39,000  Level FlightAware ADS-B (LPVM)
05:40PM 42.6011 -91.2768 91° East 492 566 39,000  Level FlightAware ADS-B (LPVM)
05:41PM 42.5983 -91.1156 91° East 488 562 39,000 -74 Level FlightAware ADS-B (LPVM)
05:41PM 42.5965 -91.0155 91° East 486 559 38,900 -825 Descending FlightAware ADS-B (LPVM)
05:42PM 42.5936 -90.8697 91° East 494 568 37,900 -1,171 Descending FlightAware ADS-B (LPVM)
05:42PM 42.5914 -90.7648 92° East 493 567 37,300 -1,059 Descending FlightAware ADS-B (LPVM)
05:43PM 42.5890 -90.6610 92° East 494 568 36,700 -1,164 Descending FlightAware
05:44PM 42.5870 -90.5590 91° East 497 572 36,000 -1,130 Descending FlightAware
05:44PM 42.5840 -90.4450 92° East 499 574 35,400 -822 Descending FlightAware
05:45PM 42.5820 -90.3370 91° East 500 575 35,000 -329 Descending FlightAware
05:45PM 42.5790 -90.2200 92° East 497 572 35,000  Level FlightAware
05:46PM 42.5760 -90.1210 92° East 494 568 35,000  Level FlightAware
05:46PM 42.5730 -90.0140 92° East 493 567 35,000  Level FlightAware
05:47PM 42.5700 -89.9010 92° East 492 566 35,000  Level FlightAware
05:48PM 42.5670 -89.7990 92° East 491 565 35,000  Level FlightAware
05:48PM 42.5640 -89.6940 92° East 489 563 35,000  Level FlightAware
05:49PM 42.5610 -89.5810 92° East 488 562 35,000  Level FlightAware
05:49PM 42.5570 -89.4740 93° East 488 562 35,000  Level FlightAware
05:50PM 42.5530 -89.3580 93° East 487 560 35,000  Level FlightAware
05:51PM 42.5500 -89.2570 92° East 488 562 35,000  Level FlightAware
05:51PM 42.5460 -89.1520 93° East 489 563 35,000  Level FlightAware
05:52PM 42.5430 -89.0470 92° East 488 562 35,000  Level FlightAware
05:52PM 42.5390 -88.9410 93° East 487 560 35,000  Level FlightAware
05:53PM 42.5350 -88.8380 93° East 486 559 35,000  Level FlightAware
05:54PM 42.5300 -88.7220 93° East 485 558 35,000  Level FlightAware
05:54PM 42.5260 -88.6210 93° East 483 556 35,000  Level FlightAware
05:55PM 42.5230 -88.5260 92° East 481 554 35,000  Level FlightAware
05:55PM 42.5180 -88.4100 93° East 479 551 35,000  Level FlightAware
05:56PM 42.5130 -88.3020 94° East 477 549 35,000  Level FlightAware
05:56PM 42.5090 -88.2060 93° East 476 548 35,000  Level FlightAware
05:57PM 42.5040 -88.0970 94° East 473 544 35,000  Level FlightAware
05:58PM 42.5010 -88.0070 93° East 473 544 35,000  Level FlightAware
05:58PM 42.5000 -87.8930 91° East 472 543 35,000  Level FlightAware
05:59PM 42.5000 -87.7990 90° East 471 542 35,000  Level FlightAware
05:59PM 42.5000 -87.6990 90° East 471 542 35,000  Level FlightAware
06:00PM 42.4990 -87.5890 91° East 470 541 35,000  Level FlightAware
06:00PM 42.4990 -87.4870 90° East 470 541 35,000  Level FlightAware
06:01PM 42.4990 -87.3800 90° East 471 542 35,000  Level FlightAware
06:02PM 42.4980 -87.2700 91° East 472 543 35,000  Level FlightAware
06:02PM 42.4970 -87.1830 91° East 472 543 35,000  Level FlightAware
06:03PM 42.4970 -87.0740 90° East 473 544 35,000  Level FlightAware
06:03PM 42.4960 -86.9610 91° East 475 547 35,000  Level FlightAware
06:04PM 42.4950 -86.8570 91° East 477 549 35,000  Level FlightAware
06:05PM 42.4940 -86.7570 91° East 478 550 35,000  Level FlightAware
06:05PM 42.4920 -86.6470 91° East 479 551 35,000  Level FlightAware
06:06PM 42.4910 -86.5470 91° East 479 551 35,000  Level FlightAware
06:06PM 42.4900 -86.4430 91° East 479 551 35,000  Level FlightAware
06:07PM 42.4880 -86.3360 91° East 479 551 35,000  Level FlightAware
06:08PM 42.4870 -86.2330 91° East 478 550 35,000  Level FlightAware
06:08PM 42.4850 -86.1370 92° East 477 549 35,000  Level FlightAware
06:09PM 42.4840 -86.0310 91° East 477 549 35,000  Level FlightAware
06:09PM 42.4820 -85.9290 91° East 476 548 35,000  Level FlightAware
06:10PM 42.4800 -85.8000 91° East 474 545 35,000  Level FlightAware
06:11PM 42.4780 -85.6990 92° East 473 544 35,000  Level FlightAware
06:11PM 42.4750 -85.5960 92° East 472 543 35,000  Level FlightAware
06:12PM 42.4730 -85.4870 91° East 471 542 35,000  Level FlightAware
06:12PM 42.4710 -85.3810 91° East 470 541 35,000  Level FlightAware
06:13PM 42.4690 -85.2840 92° East 470 541 35,000  Level FlightAware
06:13PM 42.4660 -85.1770 92° East 469 540 35,000  Level FlightAware
06:14PM 42.4640 -85.0750 91° East 469 540 35,000  Level FlightAware
06:15PM 42.4610 -84.9790 92° East 468 539 35,000  Level FlightAware
06:15PM 42.4580 -84.8830 92° East 467 537 35,000  Level FlightAware
06:16PM 42.4560 -84.7820 92° East 467 537 35,000  Level FlightAware
06:16PM 42.4530 -84.6750 92° East 468 539 35,000  Level FlightAware
06:17PM 42.4500 -84.5710 92° East 468 539 35,000  Level FlightAware
06:17PM 42.4470 -84.4690 92° East 469 540 35,000  Level FlightAware
06:18PM 42.4430 -84.3570 93° East 469 540 35,000  Level FlightAware
06:19PM 42.4400 -84.2580 92° East 468 539 35,000  Level FlightAware
06:19PM 42.4370 -84.1600 92° East 468 539 35,000  Level FlightAware
06:20PM 42.4330 -84.0380 93° East 468 539 35,000  Level FlightAware
06:21PM 42.4290 -83.9390 93° East 467 537 35,000  Level FlightAware
06:21PM 42.4250 -83.8290 93° East 466 536 35,000  Level FlightAware
06:22PM 42.4220 -83.7360 92° East 466 536 35,000  Level FlightAware
06:22PM 42.4180 -83.6260 93° East 465 535 35,000  Level FlightAware
06:23PM 42.4140 -83.5270 93° East 465 535 35,000  Level FlightAware
06:24PM 42.4100 -83.4150 93° East 465 535 35,000  Level FlightAware
06:24PM 42.4060 -83.3230 93° East 465 535 35,000  Level FlightAware
06:25PM 42.4010 -83.2130 93° East 464 534 35,000  Level FlightAware
06:25PM 42.3980 -83.1250 93° East 465 535 35,000  Level FlightAware
06:26PM 42.3930 -83.0130 93° East 465 535 35,000  Level FlightAware
06:26PM 42.3890 -82.9160 93° East 465 535 35,000  Level FlightAware
06:27PM 42.3840 -82.8140 94° East 465 535 35,000  Level FlightAware
06:28PM 42.3790 -82.7130 94° East 465 535 35,000  Level FlightAware
06:28PM 42.3750 -82.5890 92° East 464 534 35,000  Level FlightAware
06:29PM 42.3710 -82.4850 93° East 464 534 35,000  Level FlightAware
06:29PM 42.3670 -82.3910 93° East 463 533 35,000  Level FlightAware
06:30PM 42.3620 -82.2810 93° East 462 532 35,000  Level FlightAware
06:31PM 42.3580 -82.1800 93° East 461 531 35,000  Level FlightAware
06:31PM 42.3540 -82.0840 93° East 460 529 35,000  Level FlightAware
06:32PM 42.3500 -82.0000 94° East 459 528 35,000  Level FlightAware
06:32PM 42.3450 -81.8870 93° East 458 527 35,000  Level FlightAware
06:33PM 42.3410 -81.7910 93° East 458 527 35,000  Level FlightAware
06:34PM 42.3360 -81.6820 94° East 458 527 35,000  Level FlightAware
06:34PM 42.3310 -81.5790 94° East 457 526 35,000  Level FlightAware
06:35PM 42.3270 -81.4870 93° East 457 526 35,000  Level FlightAware
06:35PM 42.3220 -81.3810 94° East 457 526 35,000  Level FlightAware
06:36PM 42.3170 -81.2810 94° East 459 528 35,000  Level FlightAware
06:36PM 42.3120 -81.1880 94° East 460 529 35,000  Level FlightAware
06:37PM 42.3070 -81.0820 94° East 460 529 35,000  Level FlightAware
06:38PM 42.3010 -80.9770 94° East 460 529 35,000  Level FlightAware
06:38PM 42.2970 -80.8860 93° East 462 532 35,000  Level FlightAware
06:39PM 42.2890 -80.7800 96° East 460 529 35,000  Level FlightAware
06:39PM 42.2770 -80.6750 99° East 461 531 35,000  Level FlightAware
06:40PM 42.2650 -80.5900 101° East 461 531 35,000  Level FlightAware
06:41PM 42.2510 -80.4870 100° East 462 532 35,000  Level FlightAware
06:41PM 42.2370 -80.3830 100° East 462 532 35,000  Level FlightAware
06:42PM 42.2250 -80.2900 100° East 463 533 35,000  Level FlightAware
06:42PM 42.2100 -80.1840 101° East 463 533 35,000  Level FlightAware
06:43PM 42.1980 -80.0930 100° East 463 533 35,000  Level FlightAware
06:43PM 42.1830 -79.9890 101° East 464 534 35,000  Level FlightAware
06:44PM 42.1700 -79.8950 101° East 465 535 35,000  Level FlightAware
06:45PM 42.1560 -79.7930 100° East 465 535 35,000  Level FlightAware
06:45PM 42.1410 -79.6870 101° East 465 535 35,000  Level FlightAware
06:46PM 42.1250 -79.5930 103° East 464 534 35,000  Level FlightAware
06:46PM 42.1080 -79.4970 103° East 465 535 35,000  Level FlightAware
06:47PM 42.0910 -79.4000 103° East 465 535 35,000  Level FlightAware
06:47PM 42.0750 -79.3090 103° East 465 535 35,000  Level FlightAware
06:48PM 42.0560 -79.1970 103° East 466 536 35,000  Level FlightAware
06:49PM 42.0380 -79.0950 103° East 467 537 35,000  Level FlightAware
06:49PM 42.0240 -79.0130 103° East 468 539 35,000  Level FlightAware
06:50PM 42.0050 -78.9070 104° East 468 539 35,000  Level FlightAware
06:50PM 41.9860 -78.8020 104° East 467 537 35,000  Level FlightAware
06:51PM 41.9680 -78.6990 103° East 469 540 35,000  Level FlightAware
06:52PM 41.9520 -78.6110 104° East 469 540 35,000  Level FlightAware
06:52PM 41.9340 -78.5080 103° East 469 540 35,000  Level FlightAware
06:53PM 41.9160 -78.4130 104° East 470 541 35,000  Level FlightAware
06:53PM 41.8950 -78.2990 104° East 470 541 35,000  Level FlightAware
06:54PM 41.8790 -78.2080 103° East 470 541 35,000  Level FlightAware
06:54PM 41.8630 -78.1210 104° East 470 541 35,000  Level FlightAware
06:55PM 41.8450 -78.0280 105° East 471 542 35,000  Level FlightAware
06:56PM 41.8270 -77.9300 104° East 470 541 35,000  Level FlightAware
06:56PM 41.8090 -77.8310 104° East 468 539 35,000  Level FlightAware
06:57PM 41.7870 -77.7160 104° East 467 537 35,000  Level FlightAware
06:57PM 41.7720 -77.6360 104° East 467 537 35,000  Level FlightAware
06:58PM 41.7520 -77.5330 105° East 467 537 35,000  Level FlightAware
06:59PM 41.7320 -77.4290 104° East 466 536 35,000  Level FlightAware
06:59PM 41.7150 -77.3410 104° East 464 534 35,000 -429 Level FlightAware
07:00PM 41.6940 -77.2320 104° East 463 533 34,500 -943 Descending FlightAware
07:00PM 41.6760 -77.1450 105° East 466 536 33,900 -1,200 Descending FlightAware
07:01PM 41.6530 -77.0550 109° East 468 539 33,200 -771 Descending FlightAware
07:01PM 41.6260 -76.9570 110° East 469 540 33,000 -150 Descending FlightAware
07:02PM 41.5930 -76.8340 110° East 467 537 33,000  Level FlightAware
07:03PM 41.5670 -76.7410 110° East 465 535 33,000  Level FlightAware
07:03PM 41.5410 -76.6460 110° East 462 532 33,000  Level FlightAware
07:04PM 41.5080 -76.5270 110° East 459 528 33,000  Level FlightAware
07:05PM 41.4780 -76.4170 110° East 459 528 33,000  Level FlightAware
07:05PM 41.4510 -76.3200 110° East 462 532 33,000  Level FlightAware
07:06PM 41.4260 -76.2320 111° Southeast 466 536 33,000  Level FlightAware
07:07PM 41.4010 -76.1420 110° East 469 540 33,000  Level FlightAware
07:07PM 41.3740 -76.0460 111° Southeast 472 543 33,000 -261 Level FlightAware
07:08PM 41.3480 -75.9550 111° Southeast 475 547 32,700 -1,606 Descending FlightAware
07:08PM 41.3190 -75.8510 110° East 477 549 31,100 -2,535 Descending FlightAware
07:09PM 41.2920 -75.7570 111° Southeast 470 541 29,700 -2,418 Descending FlightAware
07:09PM 41.2660 -75.6680 111° Southeast 460 529 28,400 -2,368 Descending FlightAware
07:10PM 41.2300 -75.5600 114° Southeast 448 516 26,700 -2,400 Descending FlightAware
07:11PM 41.1990 -75.4680 114° Southeast 440 506 25,200 -2,385 Descending FlightAware
07:11PM 41.1660 -75.3690 114° Southeast 431 496 23,600 -1,784 Descending FlightAware
07:12PM 41.1390 -75.2900 114° Southeast 427 491 23,000 -529 Descending FlightAware
07:13PM 41.1110 -75.2060 114° Southeast 422 486 23,000  Level FlightAware
07:13PM 41.0800 -75.1160 115° Southeast 424 488 23,000  Level FlightAware
07:14PM 41.0500 -75.0280 114° Southeast 427 491 23,000  Level FlightAware
07:14PM 41.0260 -74.9580 114° Southeast 403 464 23,000 -618 Level FlightAware
07:15PM 41.0010 -74.8760 112° Southeast 386 444 22,300 -811 Descending FlightAware
07:16PM 40.9870 -74.7940 103° East 370 426 22,000 -553 Descending FlightAware
07:16PM 40.9780 -74.7070 98° East 354 407 21,600 -640 Descending FlightAware
07:17PM 40.9700 -74.6320 98° East 349 402 21,200 -636 Descending FlightAware
07:17PM 40.9640 -74.5660 97° East 348 400 20,900 -536 Descending FlightAware
07:18PM 40.9730 -74.5130 77° East 350 403 20,700 -571 Descending FlightAware
07:18PM 40.9930 -74.4370 71° East 351 404 20,300 -554 Descending FlightAware
07:19PM 40.9890 -74.3850 96° East 344 396 20,100 -500 Descending FlightAware
07:19PM 40.9700 -74.3190 111° Southeast 334 384 19,800 -511 Descending FlightAware
07:20PM 40.9613 -74.2883 111° Southeast 333 383 19,700 -536 Descending FlightAware ADS-B
07:20PM 40.9381 -74.2120 112° Southeast 331 381 19,300 -1,111 Descending FlightAware ADS-B
07:21PM 40.9095 -74.1495 121° Southeast 331 381 18,200 -1,726 Descending FlightAware ADS-B
07:22PM 40.8803 -74.0960 126° Southeast 317 365 17,200 -1,688 Descending FlightAware ADS-B
07:22PM 40.8532 -74.0478 127° Southeast 322 371 16,400 -1,355 Descending FlightAware ADS-B
07:23PM 40.8254 -73.9977 126° Southeast 317 365 15,800 -767 Descending FlightAware ADS-B
07:23PM 40.7800 -73.9150 126° Southeast 306 352 15,300 -923 Descending FlightAware
07:24PM 40.7495 -73.8594 126° Southeast 306 352 14,400 -1,371 Descending FlightAware ADS-B (KSNC)
07:25PM 40.7220 -73.8090 126° Southeast 303 349 13,700 -1,294 Descending FlightAware
07:25PM 40.7074 -73.7839 127° Southeast 302 348 13,300 -1,254 Descending FlightAware ADS-B (KSNC)
07:26PM 40.6670 -73.7140 127° Southeast 292 336 12,300 -1,220 Descending FlightAware
07:26PM 40.6580 -73.7050 143° Southeast 290 334 12,100 -1,667 Descending FlightAware
07:26PM 40.6460 -73.6970 153° Southeast 290 334 11,800 -2,100 Descending FlightAware
07:26PM 40.6301 -73.6917 166° South 286 329 11,400 -2,222 Descending FlightAware ADS-B (KSNC)
07:27PM 40.5790 -73.6790 169° South 280 322 9,800 -2,366 Descending FlightAware
07:27PM 40.5420 -73.6890 192° South 281 323 8,600 -2,571 Descending FlightAware
07:28PM 40.5180 -73.7060 208° Southwest 282 325 7,700 -2,651 Descending FlightAware
07:28PM 40.4930 -73.7250 210° Southwest 283 326 6,700 -2,462 Descending FlightAware
07:28PM 40.4730 -73.7410 211° Southwest 280 322 6,100 -2,233 Descending FlightAware
07:29PM 40.4460 -73.7630 212° Southwest 276 318 5,100 -1,700 Descending FlightAware
07:29PM 40.4100 -73.7940 213° Southwest 252 290 4,400 -1,143 Descending FlightAware
07:30PM 40.4020 -73.8010 214° Southwest 247 284 4,300 -750 Descending FlightAware
07:30PM 40.3970 -73.8110 237° Southwest 246 283 4,200 -600 Descending FlightAware
07:30PM 40.3930 -73.8280 253° West 238 274 4,100 -732 Descending FlightAware
07:30PM 40.4050 -73.8650 293° West 225 259 3,700 -909 Descending FlightAware
07:30PM 40.4080 -73.8680 323° Northwest 223 257 3,600 -1,000 Descending FlightAware
07:31PM 40.4150 -73.8730 331° Northwest 217 250 3,500 -1,000 Descending FlightAware
07:31PM 40.4250 -73.8760 347° North 211 243 3,300 -1,000 Descending FlightAware
07:31PM 40.4490 -73.8830 347° North 206 237 2,900 -783 Descending FlightAware
07:32PM 40.4660 -73.8870 350° North 194 223 2,700 -698 Descending FlightAware
07:32PM 40.4850 -73.8790 18° North 168 193 2,400 -706 Descending FlightAware
07:32PM 40.5030 -73.8680 25° Northeast 158 182 2,100 -857 Descending FlightAware
07:33PM 40.5170 -73.8560 33° Northeast 152 175 1,700 -909 Descending FlightAware
07:33PM 40.5240 -73.8500 33° Northeast 152 175 1,600 -563 Descending FlightAware
07:33PM 40.5360 -73.8400 32° Northeast 154 177 1,400 -279 Descending FlightAware
07:34PM 40.5500 -73.8290 31° Northeast 151 174 1,400 -140 Level FlightAware
07:34PM 40.5600 -73.8210 31° Northeast 130 150 1,300 -450 Descending FlightAware
07:34PM 40.5700 -73.8130 31° Northeast 115 132 1,100 -545 Descending FlightAware
07:35PM 40.5810 -73.8050 29° Northeast 113 130 900 -545 Descending FlightAware
07:35PM 40.5900 -73.7980 31° Northeast 114 131 700 -571 Descending FlightAware
07:35PM 40.6000 -73.7900 31° Northeast 113 130 500 -585 Descending FlightAware
07:36PM 40.6090 -73.7830 31° Northeast 112 129 300 -615 Descending FlightAware
07:36PM 40.6170 -73.7760 34° Northeast 115 132 100 -600 Descending FlightAware
07:36PM 40.6290 -73.7680 27° Northeast 116 133 -240 Descending FlightAware
07:37PM 40.6340 -73.7640 31° Northeast 74 85  Level FlightAware